Time;durP1;ratioP1;P1;durP2;ratioP2;P2;SDS_P1;SDS_P2;PMS_P1;PMS_P2;Temp;Humidity;BMP_temperature;BMP_pressure;BME280_temperature;BME280_humidity;BME280_pressure;Samples;Min_cycle;Max_cycle;Signal;HPM_P1;HPM_P2
2023/06/19 00:00:55;;;;;;;11.63;10.43;;;;;;;;;;5038079;28;20504;-81
2023/06/19 00:03:22;;;;;;;11.80;10.45;;;;;;;;;;5045832;28;20029;-80
2023/06/19 00:05:48;;;;;;;12.38;11.10;;;;;;;;;;5040739;28;20053;-80
2023/06/19 00:08:16;;;;;;;12.75;11.45;;;;;;;;;;5037406;28;20049;-79
2023/06/19 00:10:43;;;;;;;11.98;10.77;;;;;;;;;;5036421;28;20050;-79
2023/06/19 00:13:10;;;;;;;12.32;11.02;;;;;;;;;;5028272;28;20102;-80
2023/06/19 00:15:37;;;;;;;11.52;10.32;;;;;;;;;;5020776;28;20145;-80
2023/06/19 00:18:04;;;;;;;12.00;10.68;;;;;;;;;;5019992;28;20046;-80
2023/06/19 00:20:31;;;;;;;11.75;10.57;;;;;;;;;;5019666;28;20053;-80
2023/06/19 00:22:57;;;;;;;12.85;11.55;;;;;;;;;;5018626;28;20057;-79
2023/06/19 00:25:25;;;;;;;12.98;10.75;;;;;;;;;;5020456;28;20120;-80
2023/06/19 00:27:52;;;;;;;12.32;11.07;;;;;;;;;;5020491;28;20049;-81
2023/06/19 00:30:19;;;;;;;11.85;10.57;;;;;;;;;;5018557;28;20475;-80
2023/06/19 00:32:49;;;;;;;11.88;10.50;;;;;;;;;;5016655;28;20046;-81
2023/06/19 00:35:17;;;;;;;12.07;10.88;;;;;;;;;;5031651;28;20097;-80
2023/06/19 00:37:45;;;;;;;14.00;11.77;;;;;;;;;;5036006;28;20049;-79
2023/06/19 00:40:20;;;;;;;11.85;10.63;;;;;;;;;;5038598;28;20055;-79
2023/06/19 00:42:48;;;;;;;11.75;10.55;;;;;;;;;;5038479;28;20109;-80
2023/06/19 00:45:15;;;;;;;12.10;10.90;;;;;;;;;;5037878;28;20065;-79
2023/06/19 00:47:42;;;;;;;13.48;11.45;;;;;;;;;;5037397;28;20049;-80
2023/06/19 00:50:09;;;;;;;14.80;11.90;;;;;;;;;;5023629;28;20177;-80
2023/06/19 00:52:36;;;;;;;12.48;11.15;;;;;;;;;;5017456;28;20050;-80
2023/06/19 00:55:04;;;;;;;13.30;12.00;;;;;;;;;;5018323;28;20045;-80
2023/06/19 00:57:31;;;;;;;14.57;11.60;;;;;;;;;;5017324;28;20497;-80
2023/06/19 00:59:59;;;;;;;11.93;10.73;;;;;;;;;;5018034;28;20049;-80
2023/06/19 01:02:27;;;;;;;12.80;11.55;;;;;;;;;;5019040;28;20085;-81
2023/06/19 01:04:54;;;;;;;12.23;11.07;;;;;;;;;;5038169;28;20552;-80
2023/06/19 01:07:27;;;;;;;12.07;10.88;;;;;;;;;;5020923;28;20064;-80
2023/06/19 01:09:59;;;;;;;12.65;11.32;;;;;;;;;;5017805;28;20042;-80
2023/06/19 01:12:31;;;;;;;13.07;11.70;;;;;;;;;;5021725;28;20058;-80
2023/06/19 01:15:01;;;;;;;12.68;11.27;;;;;;;;;;5023084;28;20041;-81
2023/06/19 01:17:29;;;;;;;13.38;11.05;;;;;;;;;;5020556;28;20137;-80
2023/06/19 01:19:57;;;;;;;12.68;11.20;;;;;;;;;;5015535;28;20049;-81
2023/06/19 01:22:27;;;;;;;14.10;11.75;;;;;;;;;;5018520;28;20050;-80
2023/06/19 01:24:53;;;;;;;;;;;;;;;;;;5022519;28;20460;-80
2023/06/19 01:27:20;;;;;;;12.50;11.30;;;;;;;;;;5019645;28;19968;-79
2023/06/19 01:29:47;;;;;;;13.13;11.43;;;;;;;;;;5019653;28;20098;-79
2023/06/19 01:32:20;;;;;;;13.68;11.75;;;;;;;;;;5039129;28;20100;-80
2023/06/19 01:34:47;;;;;;;13.27;11.85;;;;;;;;;;5039149;28;20055;-78
2023/06/19 01:37:15;;;;;;;13.05;11.75;;;;;;;;;;5039709;28;20041;-79
2023/06/19 01:39:46;;;;;;;13.25;11.85;;;;;;;;;;5039180;28;20125;-79
2023/06/19 01:42:14;;;;;;;12.30;11.00;;;;;;;;;;5039933;28;20049;-81
2023/06/19 01:44:41;;;;;;;12.57;11.27;;;;;;;;;;5043486;28;20077;-80
2023/06/19 01:47:10;;;;;;;13.02;11.63;;;;;;;;;;5040849;28;20112;-79
2023/06/19 01:49:37;;;;;;;13.57;11.57;;;;;;;;;;5027769;28;20285;-80
2023/06/19 01:52:05;;;;;;;12.90;11.52;;;;;;;;;;5042051;28;20700;-79
2023/06/19 01:54:32;;;;;;;13.55;11.35;;;;;;;;;;5040998;28;20100;-80
2023/06/19 01:57:00;;;;;;;12.35;11.18;;;;;;;;;;5041148;28;20120;-80
2023/06/19 01:59:26;;;;;;;13.30;11.90;;;;;;;;;;5040458;28;20046;-79
2023/06/19 02:01:53;;;;;;;13.05;11.63;;;;;;;;;;5040823;28;20103;-80
2023/06/19 02:04:20;;;;;;;13.20;11.90;;;;;;;;;;5040569;28;20113;-79
2023/06/19 02:06:46;;;;;;;12.80;11.60;;;;;;;;;;5039911;28;20053;-80
2023/06/19 02:09:13;;;;;;;12.38;11.05;;;;;;;;;;5040693;28;20077;-80
2023/06/19 02:11:40;;;;;;;13.20;11.90;;;;;;;;;;5041062;28;20101;-79
2023/06/19 02:14:10;;;;;;;13.50;12.18;;;;;;;;;;5038532;28;20555;-79
2023/06/19 02:16:36;;;;;;;13.68;12.27;;;;;;;;;;5037603;28;20653;-79
2023/06/19 02:19:03;;;;;;;13.27;11.98;;;;;;;;;;5022774;28;20467;-78
2023/06/19 02:21:30;;;;;;;12.68;11.38;;;;;;;;;;5038697;28;20130;-79
2023/06/19 02:23:57;;;;;;;14.00;12.57;;;;;;;;;;5038892;28;20079;-79
2023/06/19 02:26:27;;;;;;;12.43;11.23;;;;;;;;;;5039054;28;20520;-79
2023/06/19 02:28:54;;;;;;;13.73;12.30;;;;;;;;;;5040398;28;20124;-79
2023/06/19 02:31:22;;;;;;;15.63;12.43;;;;;;;;;;5039616;28;20105;-80
2023/06/19 02:33:52;;;;;;;14.38;12.88;;;;;;;;;;5038349;28;20068;-80
2023/06/19 02:36:19;;;;;;;13.52;12.23;;;;;;;;;;5038419;28;20046;-80
2023/06/19 02:38:47;;;;;;;13.02;11.65;;;;;;;;;;5037224;28;20060;-80
2023/06/19 02:41:13;;;;;;;13.43;12.02;;;;;;;;;;5038121;28;20057;-81
2023/06/19 02:43:41;;;;;;;13.40;12.02;;;;;;;;;;5037395;28;20099;-79
2023/06/19 02:46:08;;;;;;;13.60;12.10;;;;;;;;;;5037445;28;20523;-79
2023/06/19 02:48:36;;;;;;;13.57;12.18;;;;;;;;;;5028563;28;20092;-79
2023/06/19 02:51:03;;;;;;;16.60;13.52;;;;;;;;;;5016670;28;20046;-79
2023/06/19 02:53:29;;;;;;;13.95;12.55;;;;;;;;;;5017552;28;20084;-80
2023/06/19 02:55:56;;;;;;;14.43;12.93;;;;;;;;;;5034917;28;20057;-80
2023/06/19 02:58:23;;;;;;;13.15;11.82;;;;;;;;;;5037155;28;20112;-79
2023/06/19 03:00:50;;;;;;;13.63;12.23;;;;;;;;;;5030573;28;20046;-80
2023/06/19 03:03:17;;;;;;;14.52;13.00;;;;;;;;;;5024950;28;20133;-80
2023/06/19 03:05:45;;;;;;;14.20;12.80;;;;;;;;;;5037556;28;20068;-80
2023/06/19 03:08:12;;;;;;;14.38;12.98;;;;;;;;;;5037984;28;20103;-80
2023/06/19 03:10:38;;;;;;;19.60;13.75;;;;;;;;;;5037330;28;20057;-79
2023/06/19 03:13:05;;;;;;;15.50;13.90;;;;;;;;;;5037757;28;20124;-78
2023/06/19 03:15:32;;;;;;;15.27;13.55;;;;;;;;;;5037379;28;20077;-80
2023/06/19 03:17:58;;;;;;;16.83;15.05;;;;;;;;;;5030351;28;20351;-81
2023/06/19 03:20:25;;;;;;;16.75;14.95;;;;;;;;;;5046078;28;20073;-80
2023/06/19 03:22:53;;;;;;;16.27;14.68;;;;;;;;;;5050395;28;20029;-79
2023/06/19 03:25:20;;;;;;;21.33;15.50;;;;;;;;;;5042080;28;20053;-79
2023/06/19 03:27:46;;;;;;;16.23;14.55;;;;;;;;;;5048802;28;20049;-80
2023/06/19 03:30:13;;;;;;;19.38;15.18;;;;;;;;;;5045144;28;20050;-80
2023/06/19 03:32:40;;;;;;;16.38;13.75;;;;;;;;;;5045193;28;20137;-78
2023/06/19 03:35:07;;;;;;;14.50;13.00;;;;;;;;;;5049960;22;20037;-83
2023/06/19 03:37:34;;;;;;;15.35;13.75;;;;;;;;;;5042092;28;20045;-83
2023/06/19 03:40:04;;;;;;;13.90;12.50;;;;;;;;;;5044641;28;20180;-82
2023/06/19 03:42:31;;;;;;;14.70;13.10;;;;;;;;;;5045405;28;20045;-82
2023/06/19 03:44:57;;;;;;;15.98;14.00;;;;;;;;;;5044702;28;20587;-83
2023/06/19 03:47:24;;;;;;;15.98;13.52;;;;;;;;;;5037392;28;20074;-83
2023/06/19 03:49:51;;;;;;;14.68;13.05;;;;;;;;;;5011464;28;20113;-82
2023/06/19 03:52:17;;;;;;;14.23;12.73;;;;;;;;;;5024350;28;20105;-83
2023/06/19 03:54:44;;;;;;;14.77;13.27;;;;;;;;;;5024064;28;20401;-84
2023/06/19 03:57:12;;;;;;;17.30;15.60;;;;;;;;;;5024510;28;20125;-84
2023/06/19 03:59:39;;;;;;;17.95;16.25;;;;;;;;;;5026512;28;20117;-83
2023/06/19 04:02:06;;;;;;;20.35;18.13;;;;;;;;;;5034027;28;20046;-83
2023/06/19 04:04:33;;;;;;;19.15;17.15;;;;;;;;;;5037228;28;20034;-84
2023/06/19 04:07:00;;;;;;;20.77;18.67;;;;;;;;;;5036381;28;20077;-83
2023/06/19 04:09:26;;;;;;;19.73;17.73;;;;;;;;;;5023818;28;20114;-83
2023/06/19 04:11:53;;;;;;;20.33;18.33;;;;;;;;;;5019704;28;20114;-82
2023/06/19 04:14:23;;;;;;;19.15;16.90;;;;;;;;;;5022619;28;20046;-82
2023/06/19 04:16:50;;;;;;;18.75;16.70;;;;;;;;;;5002161;28;20528;-82
2023/06/19 04:19:16;;;;;;;16.92;14.60;;;;;;;;;;5002545;28;20054;-82
2023/06/19 04:21:43;;;;;;;19.52;16.58;;;;;;;;;;5020430;28;20072;-82
2023/06/19 04:24:10;;;;;;;16.48;14.77;;;;;;;;;;5019427;28;20046;-83
2023/06/19 04:26:37;;;;;;;15.63;13.88;;;;;;;;;;5008152;28;20397;-82
2023/06/19 04:29:06;;;;;;;14.68;12.98;;;;;;;;;;5004498;28;20056;-82
2023/06/19 04:31:40;;;;;;;14.43;12.52;;;;;;;;;;5015805;28;20050;-82
2023/06/19 04:34:07;;;;;;;15.20;12.23;;;;;;;;;;5002710;28;20054;-82
2023/06/19 04:36:34;;;;;;;13.73;12.35;;;;;;;;;;5002197;28;20465;-82
2023/06/19 04:39:01;;;;;;;13.32;11.75;;;;;;;;;;5031431;28;20046;-83
2023/06/19 04:41:27;;;;;;;15.05;13.13;;;;;;;;;;5040877;28;20493;-82
2023/06/19 04:43:54;;;;;;;14.77;13.25;;;;;;;;;;5041763;28;20073;-83
2023/06/19 04:46:21;;;;;;;14.43;13.00;;;;;;;;;;5040152;28;20058;-84
2023/06/19 04:48:50;;;;;;;15.23;13.63;;;;;;;;;;5014285;28;20053;-84
2023/06/19 04:51:20;;;;;;;14.27;12.52;;;;;;;;;;5003071;28;20046;-84
2023/06/19 04:53:46;;;;;;;14.40;12.15;;;;;;;;;;5002720;28;20137;-84
2023/06/19 04:56:14;;;;;;;15.02;13.43;;;;;;;;;;5004460;28;20134;-84
2023/06/19 04:58:45;;;;;;;14.75;13.23;;;;;;;;;;5008617;28;20494;-82
2023/06/19 05:01:12;;;;;;;16.30;13.02;;;;;;;;;;5010429;28;20054;-84
2023/06/19 05:03:40;;;;;;;14.80;13.32;;;;;;;;;;5017864;28;20062;-86
2023/06/19 05:06:08;;;;;;;15.55;14.05;;;;;;;;;;5038021;28;20060;-84
2023/06/19 05:08:35;;;;;;;14.90;13.35;;;;;;;;;;5026646;28;20045;-87
2023/06/19 05:11:01;;;;;;;14.45;13.05;;;;;;;;;;5038405;28;20061;-84
2023/06/19 05:13:28;;;;;;;15.98;14.27;;;;;;;;;;5041006;28;20050;-86
2023/06/19 05:15:55;;;;;;;17.05;14.05;;;;;;;;;;5041485;28;20050;-86
2023/06/19 05:18:22;;;;;;;15.45;13.85;;;;;;;;;;5033605;28;20094;-86
2023/06/19 05:20:49;;;;;;;14.95;12.95;;;;;;;;;;5036667;28;20054;-82
2023/06/19 05:23:17;;;;;;;16.42;13.05;;;;;;;;;;5036030;28;20195;-82
2023/06/19 05:25:45;;;;;;;15.38;13.77;;;;;;;;;;5031369;28;20050;-83
2023/06/19 05:28:12;;;;;;;13.57;12.18;;;;;;;;;;5028951;28;20038;-83
2023/06/19 05:30:38;;;;;;;14.45;12.65;;;;;;;;;;5032985;28;20081;-83
2023/06/19 05:33:05;;;;;;;14.50;12.07;;;;;;;;;;5030239;28;20080;-84
2023/06/19 05:35:32;;;;;;;13.90;12.40;;;;;;;;;;5036739;28;20050;-84
2023/06/19 05:37:59;;;;;;;14.88;11.77;;;;;;;;;;5036173;28;20056;-83
2023/06/19 05:40:28;;;;;;;13.05;11.40;;;;;;;;;;5017264;28;20074;-82
2023/06/19 05:42:55;;;;;;;14.25;11.60;;;;;;;;;;5015245;28;20050;-83
2023/06/19 05:45:22;;;;;;;13.15;11.75;;;;;;;;;;5022382;28;20074;-86
2023/06/19 05:47:49;;;;;;;12.65;11.32;;;;;;;;;;5023906;28;20065;-84
2023/06/19 05:50:16;;;;;;;13.75;11.15;;;;;;;;;;5028765;28;20061;-86
2023/06/19 05:52:43;;;;;;;15.07;11.48;;;;;;;;;;5024007;28;20069;-84
2023/06/19 05:55:10;;;;;;;12.63;11.18;;;;;;;;;;5018615;28;20047;-83
2023/06/19 05:57:38;;;;;;;13.20;10.73;;;;;;;;;;5013497;28;20046;-84
2023/06/19 06:00:06;;;;;;;14.27;11.10;;;;;;;;;;5030268;28;20046;-84
2023/06/19 06:02:33;;;;;;;13.07;11.57;;;;;;;;;;5027213;28;20105;-84
2023/06/19 06:05:00;;;;;;;13.73;10.73;;;;;;;;;;5041801;28;20029;-84
2023/06/19 06:07:28;;;;;;;13.05;11.10;;;;;;;;;;5033577;28;20047;-82
2023/06/19 06:09:55;;;;;;;12.20;10.82;;;;;;;;;;5017927;28;20070;-82
2023/06/19 06:12:22;;;;;;;14.65;11.40;;;;;;;;;;5016875;28;20048;-82
2023/06/19 06:14:50;;;;;;;13.90;10.90;;;;;;;;;;5019898;28;20482;-82
2023/06/19 06:17:17;;;;;;;12.13;10.85;;;;;;;;;;5021078;28;20045;-83
2023/06/19 06:19:44;;;;;;;12.13;10.30;;;;;;;;;;5020143;28;20069;-82
2023/06/19 06:22:10;;;;;;;14.15;10.52;;;;;;;;;;5034951;28;20033;-82
2023/06/19 06:24:38;;;;;;;13.88;10.60;;;;;;;;;;5059986;28;20053;-81
2023/06/19 06:27:06;;;;;;;13.27;11.23;;;;;;;;;;5059189;28;20053;-83
2023/06/19 06:29:33;;;;;;;12.48;10.70;;;;;;;;;;5058203;28;20045;-83
2023/06/19 06:32:06;;;;;;;12.93;11.02;;;;;;;;;;5044296;28;20034;-82
2023/06/19 06:34:34;;;;;;;14.30;10.77;;;;;;;;;;5025582;28;20113;-81
2023/06/19 06:37:01;;;;;;;14.40;11.43;;;;;;;;;;5055201;28;20477;-84
2023/06/19 06:39:27;;;;;;;12.70;11.38;;;;;;;;;;5056592;28;20037;-82
2023/06/19 06:41:54;;;;;;;13.15;10.77;;;;;;;;;;5051651;28;20042;-84
2023/06/19 06:44:21;;;;;;;12.60;10.73;;;;;;;;;;5035501;28;20072;-82
2023/06/19 06:46:47;;;;;;;13.48;10.68;;;;;;;;;;5029578;28;20185;-82
2023/06/19 06:49:16;;;;;;;12.05;10.77;;;;;;;;;;5031692;28;20076;-83
2023/06/19 06:51:43;;;;;;;11.82;10.50;;;;;;;;;;5010368;28;20073;-83
2023/06/19 06:54:10;;;;;;;11.77;10.52;;;;;;;;;;5038551;28;20447;-83
2023/06/19 06:56:37;;;;;;;11.05;9.85;;;;;;;;;;5043285;28;20095;-83
2023/06/19 06:59:03;;;;;;;10.93;9.52;;;;;;;;;;5055724;28;20029;-86
2023/06/19 07:01:30;;;;;;;11.25;10.05;;;;;;;;;;5058591;28;20458;-86
2023/06/19 07:03:57;;;;;;;12.38;9.75;;;;;;;;;;5034380;28;20046;-85
2023/06/19 07:06:25;;;;;;;11.60;10.35;;;;;;;;;;5026762;28;20081;-84
2023/06/19 07:08:52;;;;;;;10.80;9.20;;;;;;;;;;5019358;28;20050;-84
2023/06/19 07:11:18;;;;;;;10.90;9.80;;;;;;;;;;5009949;28;20069;-83
2023/06/19 07:13:45;;;;;;;11.65;10.23;;;;;;;;;;5041435;28;20046;-82
2023/06/19 07:16:12;;;;;;;11.68;9.75;;;;;;;;;;5039885;28;20037;-83
2023/06/19 07:18:40;;;;;;;14.75;10.95;;;;;;;;;;5011763;28;20057;-84
2023/06/19 07:21:12;;;;;;;11.45;8.93;;;;;;;;;;5021350;28;20037;-85
2023/06/19 07:23:40;;;;;;;12.73;9.65;;;;;;;;;;5040520;28;20049;-83
2023/06/19 07:26:07;;;;;;;10.55;9.38;;;;;;;;;;5036764;28;20057;-84
2023/06/19 07:28:36;;;;;;;10.68;9.15;;;;;;;;;;5024584;28;20053;-86
2023/06/19 07:31:02;;;;;;;10.55;9.38;;;;;;;;;;5036642;28;20082;-84
2023/06/19 07:33:30;;;;;;;11.10;9.68;;;;;;;;;;5044939;28;20115;-84
2023/06/19 07:35:57;;;;;;;10.88;9.23;;;;;;;;;;5033958;28;20076;-77
2023/06/19 07:38:25;;;;;;;11.10;9.80;;;;;;;;;;5048525;28;20115;-83
2023/06/19 07:40:53;;;;;;;11.00;9.30;;;;;;;;;;5050080;28;20060;-83
2023/06/19 07:43:22;;;;;;;10.02;8.45;;;;;;;;;;5049544;28;20065;-86
2023/06/19 07:45:49;;;;;;;10.30;9.20;;;;;;;;;;5047596;28;20523;-84
2023/06/19 07:48:15;;;;;;;10.05;9.05;;;;;;;;;;5033698;28;20045;-86
2023/06/19 07:50:42;;;;;;;10.23;8.70;;;;;;;;;;5050428;28;20051;-86
2023/06/19 07:53:09;;;;;;;10.18;9.07;;;;;;;;;;5040452;28;20085;-84
2023/06/19 07:55:36;;;;;;;11.05;8.30;;;;;;;;;;5023080;28;20049;-82
2023/06/19 07:58:04;;;;;;;9.32;7.75;;;;;;;;;;5026052;28;20058;-82
2023/06/19 08:00:30;;;;;;;10.07;8.77;;;;;;;;;;5036749;28;20436;-82
2023/06/19 08:02:57;;;;;;;10.63;8.05;;;;;;;;;;5033619;28;20042;-83
2023/06/19 08:05:24;;;;;;;11.10;8.80;;;;;;;;;;5028123;28;20053;-78
2023/06/19 08:07:51;;;;;;;10.98;7.78;;;;;;;;;;5022704;28;20508;-85
2023/06/19 08:10:17;;;;;;;10.27;8.07;;;;;;;;;;5032645;28;20029;-86
2023/06/19 08:12:45;;;;;;;9.75;8.70;;;;;;;;;;5030478;28;20046;-87
2023/06/19 08:15:14;;;;;;;8.73;7.60;;;;;;;;;;5039990;28;20049;-83
2023/06/19 08:17:41;;;;;;;9.52;8.35;;;;;;;;;;5035872;28;20041;-84
2023/06/19 08:20:09;;;;;;;10.00;8.32;;;;;;;;;;5044148;28;20045;-84
2023/06/19 08:22:36;;;;;;;9.60;8.18;;;;;;;;;;5023527;28;20046;-85
2023/06/19 08:25:03;;;;;;;9.90;8.02;;;;;;;;;;5026236;28;20056;-84
2023/06/19 08:27:30;;;;;;;8.00;6.97;;;;;;;;;;5030384;28;20081;-84
2023/06/19 08:29:57;;;;;;;7.47;6.68;;;;;;;;;;5020970;28;20057;-84
2023/06/19 08:32:26;;;;;;;7.80;6.22;;;;;;;;;;5036392;28;20045;-83
2023/06/19 08:34:53;;;;;;;8.52;6.50;;;;;;;;;;5017969;28;20061;-83
2023/06/19 08:37:20;;;;;;;8.95;6.88;;;;;;;;;;5010912;28;20037;-84
2023/06/19 08:39:46;;;;;;;8.55;7.32;;;;;;;;;;5025792;28;20048;-83
2023/06/19 08:42:13;;;;;;;8.55;7.43;;;;;;;;;;5010654;28;20061;-85
2023/06/19 08:44:40;;;;;;;8.57;6.75;;;;;;;;;;5034468;28;20049;-84
2023/06/19 08:47:08;;;;;;;10.95;8.07;;;;;;;;;;5020085;28;20062;-82
2023/06/19 08:49:36;;;;;;;9.07;6.78;;;;;;;;;;5025789;28;20046;-84
2023/06/19 08:52:04;;;;;;;7.13;5.00;;;;;;;;;;5034376;28;20042;-84
2023/06/19 08:54:31;;;;;;;7.30;4.88;;;;;;;;;;5029562;28;20050;-81
2023/06/19 08:57:01;;;;;;;6.18;4.55;;;;;;;;;;5036520;28;20669;-85
2023/06/19 08:59:29;;;;;;;5.65;4.70;;;;;;;;;;5036299;28;20103;-86
2023/06/19 09:01:56;;;;;;;6.63;5.25;;;;;;;;;;5021513;28;20080;-85
2023/06/19 09:04:26;;;;;;;6.05;4.90;;;;;;;;;;5029611;28;20076;-85
2023/06/19 09:06:54;;;;;;;;;;;;;;;;;;5026344;28;20046;-83
2023/06/19 09:09:23;;;;;;;6.65;5.28;;;;;;;;;;5015014;28;19944;-81
2023/06/19 09:11:59;;;;;;;7.40;4.88;;;;;;;;;;5018170;28;20103;-82
2023/06/19 09:14:32;;;;;;;5.55;4.18;;;;;;;;;;5033939;28;20042;-80
2023/06/19 09:16:59;;;;;;;6.57;5.10;;;;;;;;;;5040665;28;20038;-83
2023/06/19 09:19:25;;;;;;;6.07;5.22;;;;;;;;;;5040919;28;20049;-78
2023/06/19 09:21:53;;;;;;;6.45;5.05;;;;;;;;;;5044216;28;20105;-80
2023/06/19 09:24:20;;;;;;;8.98;5.70;;;;;;;;;;5042119;28;20085;-83
2023/06/19 09:26:47;;;;;;;7.43;5.68;;;;;;;;;;5033180;28;20085;-83
2023/06/19 09:29:15;;;;;;;6.32;5.60;;;;;;;;;;5032382;28;20052;-83
2023/06/19 09:31:42;;;;;;;8.35;6.50;;;;;;;;;;5033765;28;20045;-83
2023/06/19 09:34:09;;;;;;;7.93;6.53;;;;;;;;;;5032941;28;20083;-82
2023/06/19 09:36:37;;;;;;;6.93;6.20;;;;;;;;;;5033215;28;20056;-81
2023/06/19 09:39:05;;;;;;;7.13;6.38;;;;;;;;;;5040262;28;20534;-82
2023/06/19 09:41:33;;;;;;;7.07;6.35;;;;;;;;;;5042964;28;20347;-83
2023/06/19 09:44:00;;;;;;;8.15;6.85;;;;;;;;;;5031301;28;20053;-81
2023/06/19 09:46:31;;;;;;;7.90;6.70;;;;;;;;;;5017852;28;20046;-80
2023/06/19 09:49:01;;;;;;;7.72;6.93;;;;;;;;;;5019395;28;20089;-86
2023/06/19 09:51:31;;;;;;;8.63;7.72;;;;;;;;;;5019697;28;20056;-81
2023/06/19 09:53:59;;;;;;;9.68;7.60;;;;;;;;;;5027927;28;20052;-82
2023/06/19 09:56:28;;;;;;;11.70;7.28;;;;;;;;;;5050227;28;20033;-83
2023/06/19 09:58:59;;;;;;;8.30;7.40;;;;;;;;;;5028824;28;20116;-78
2023/06/19 10:01:28;;;;;;;9.05;7.13;;;;;;;;;;5019660;28;20798;-80
2023/06/19 10:04:04;;;;;;;8.35;7.45;;;;;;;;;;5018935;28;20084;-80
2023/06/19 10:06:31;;;;;;;8.25;7.30;;;;;;;;;;5030217;28;20053;-79
2023/06/19 10:09:07;;;;;;;8.77;7.05;;;;;;;;;;5047408;28;20060;-78
2023/06/19 10:11:47;;;;;;;7.65;6.50;;;;;;;;;;5054495;28;20076;-79
2023/06/19 10:14:18;;;;;;;9.40;7.13;;;;;;;;;;5043372;28;20037;-79
2023/06/19 10:16:44;;;;;;;8.27;6.70;;;;;;;;;;5015367;28;20081;-78
2023/06/19 10:19:18;;;;;;;7.70;6.90;;;;;;;;;;5030096;28;20042;-78
2023/06/19 10:21:47;;;;;;;9.63;8.20;;;;;;;;;;5033273;28;20042;-77
2023/06/19 10:24:19;;;;;;;8.40;6.75;;;;;;;;;;5041695;28;20041;-81
2023/06/19 10:26:57;;;;;;;8.73;6.55;;;;;;;;;;5023732;28;20468;-81
2023/06/19 10:29:24;;;;;;;7.50;6.20;;;;;;;;;;5034403;28;20041;-80
2023/06/19 10:31:51;;;;;;;8.65;6.68;;;;;;;;;;5036787;28;20538;-82
2023/06/19 10:34:18;;;;;;;7.53;6.25;;;;;;;;;;5035326;28;20045;-86
2023/06/19 10:36:45;;;;;;;6.45;5.60;;;;;;;;;;5035002;28;20049;-85
2023/06/19 10:39:12;;;;;;;6.82;6.00;;;;;;;;;;5034605;28;20085;-85
2023/06/19 10:41:41;;;;;;;6.30;5.07;;;;;;;;;;5035718;28;20042;-85
2023/06/19 10:44:12;;;;;;;6.18;4.78;;;;;;;;;;5035057;28;20533;-86
2023/06/19 10:46:40;;;;;;;6.25;5.10;;;;;;;;;;5030574;28;20049;-85
2023/06/19 10:49:10;;;;;;;5.80;4.70;;;;;;;;;;5021834;28;20042;-87
2023/06/19 10:51:37;;;;;;;6.90;4.80;;;;;;;;;;5019151;28;20052;-82
2023/06/19 10:54:04;;;;;;;6.15;4.82;;;;;;;;;;5007973;28;20046;-81
2023/06/19 10:56:31;;;;;;;5.97;4.47;;;;;;;;;;5004784;28;20087;-81
2023/06/19 10:59:00;;;;;;;6.57;4.85;;;;;;;;;;5005148;28;20125;-81
2023/06/19 11:01:35;;;;;;;5.28;3.90;;;;;;;;;;5006998;28;20070;-79
2023/06/19 11:04:04;;;;;;;5.38;4.30;;;;;;;;;;5015623;28;20125;-78
2023/06/19 11:06:31;;;;;;;6.68;5.07;;;;;;;;;;5015902;28;20084;-80
2023/06/19 11:09:00;;;;;;;7.90;4.55;;;;;;;;;;5015038;28;20042;-83
2023/06/19 11:11:39;;;;;;;6.18;4.40;;;;;;;;;;5008369;28;20054;-84
2023/06/19 11:14:07;;;;;;;6.18;4.60;;;;;;;;;;5017882;28;20475;-83
2023/06/19 11:16:35;;;;;;;5.78;4.60;;;;;;;;;;5041098;28;20038;-83
2023/06/19 11:19:04;;;;;;;6.75;5.13;;;;;;;;;;5038218;28;20117;-83
2023/06/19 11:21:32;;;;;;;5.53;4.47;;;;;;;;;;5044155;28;20033;-82
2023/06/19 11:24:00;;;;;;;5.50;4.50;;;;;;;;;;5047444;28;20072;-83
2023/06/19 11:26:27;;;;;;;5.80;4.65;;;;;;;;;;5033166;28;20084;-83
2023/06/19 11:28:54;;;;;;;5.55;4.43;;;;;;;;;;5025351;28;20034;-84
2023/06/19 11:31:26;;;;;;;5.85;4.63;;;;;;;;;;5026375;28;20412;-81
2023/06/19 11:33:59;;;;;;;5.60;4.13;;;;;;;;;;5029103;28;20046;-82
2023/06/19 11:36:26;;;;;;;7.95;4.60;;;;;;;;;;5028665;28;20057;-83
2023/06/19 11:38:53;;;;;;;5.20;4.28;;;;;;;;;;5025978;28;20069;-81
2023/06/19 11:41:27;;;;;;;6.57;5.00;;;;;;;;;;5025944;28;20077;-82
2023/06/19 11:43:59;;;;;;;5.55;4.60;;;;;;;;;;5025779;28;20137;-82
2023/06/19 11:46:30;;;;;;;5.40;4.40;;;;;;;;;;5014275;28;20050;-83
2023/06/19 11:49:08;;;;;;;11.85;4.88;;;;;;;;;;5000893;28;20050;-82
2023/06/19 11:51:37;;;;;;;6.20;4.57;;;;;;;;;;5000804;28;20088;-83
2023/06/19 11:54:06;;;;;;;6.33;4.70;;;;;;;;;;4997118;28;20081;-83
2023/06/19 11:56:33;;;;;;;11.13;5.40;;;;;;;;;;5000992;28;20286;-84
2023/06/19 11:59:00;;;;;;;8.45;4.80;;;;;;;;;;5036906;28;20111;-88
2023/06/19 12:01:27;;;;;;;6.32;4.60;;;;;;;;;;5031275;28;20119;-85
2023/06/19 12:03:54;;;;;;;5.63;4.50;;;;;;;;;;5032041;28;20030;-83
2023/06/19 12:06:22;;;;;;;5.50;4.38;;;;;;;;;;5019838;28;20066;-85
2023/06/19 12:08:49;;;;;;;5.05;4.07;;;;;;;;;;4998941;28;20125;-83
2023/06/19 12:11:15;;;;;;;6.55;4.45;;;;;;;;;;5013047;28;20046;-83
2023/06/19 12:13:42;;;;;;;6.72;4.28;;;;;;;;;;5036185;28;20049;-83
2023/06/19 12:16:10;;;;;;;6.55;4.10;;;;;;;;;;5035713;28;20084;-85
2023/06/19 12:18:37;;;;;;;5.45;4.07;;;;;;;;;;5036996;28;20080;-84
2023/06/19 12:21:04;;;;;;;5.10;3.97;;;;;;;;;;5035790;28;20091;-84
2023/06/19 12:23:32;;;;;;;5.25;4.47;;;;;;;;;;5035911;28;20056;-83
2023/06/19 12:25:59;;;;;;;5.53;4.18;;;;;;;;;;5036741;28;20091;-84
2023/06/19 12:28:26;;;;;;;5.45;4.53;;;;;;;;;;5032163;28;20084;-80
2023/06/19 12:30:56;;;;;;;7.13;4.57;;;;;;;;;;5022460;28;20041;-83
2023/06/19 12:33:23;;;;;;;6.53;4.38;;;;;;;;;;5017539;28;20050;-81
2023/06/19 12:35:50;;;;;;;6.75;4.30;;;;;;;;;;5030130;28;20073;-84
2023/06/19 12:38:17;;;;;;;6.07;4.38;;;;;;;;;;5036544;28;20091;-84
2023/06/19 12:40:45;;;;;;;5.93;4.78;;;;;;;;;;5037787;28;20049;-82
2023/06/19 12:43:12;;;;;;;5.75;4.35;;;;;;;;;;5033624;28;20377;-81
2023/06/19 12:45:41;;;;;;;12.25;4.63;;;;;;;;;;5034925;28;20075;-83
2023/06/19 12:48:08;;;;;;;6.63;4.57;;;;;;;;;;5029510;28;20420;-84
2023/06/19 12:50:35;;;;;;;6.25;4.55;;;;;;;;;;5019639;28;20085;-84
2023/06/19 12:53:02;;;;;;;6.60;4.68;;;;;;;;;;5028194;28;20069;-83
2023/06/19 12:55:28;;;;;;;5.95;4.97;;;;;;;;;;5025470;28;20054;-83
2023/06/19 12:57:56;;;;;;;5.97;4.85;;;;;;;;;;5021058;28;20044;-82
2023/06/19 13:00:23;;;;;;;5.53;4.70;;;;;;;;;;5025821;28;20668;-83
2023/06/19 13:02:50;;;;;;;5.53;4.75;;;;;;;;;;5030816;28;20053;-84
2023/06/19 13:05:16;;;;;;;6.03;4.65;;;;;;;;;;5032439;28;20121;-83
2023/06/19 13:07:43;;;;;;;7.72;5.03;;;;;;;;;;5032876;28;20084;-81
2023/06/19 13:10:11;;;;;;;6.30;4.82;;;;;;;;;;5023475;28;20057;-83
2023/06/19 13:12:37;;;;;;;6.03;4.60;;;;;;;;;;5034487;28;20077;-83
2023/06/19 13:15:07;;;;;;;6.90;4.68;;;;;;;;;;5040206;28;20121;-84
2023/06/19 13:17:34;;;;;;;;;;;;;;;;;;5041407;28;20041;-84
2023/06/19 13:20:00;;;;;;;5.72;4.57;;;;;;;;;;5038182;28;19971;-83
2023/06/19 13:22:27;;;;;;;6.20;5.03;;;;;;;;;;5023538;28;20092;-84
2023/06/19 13:24:54;;;;;;;5.55;4.70;;;;;;;;;;5041403;28;20057;-83
2023/06/19 13:27:20;;;;;;;8.05;5.30;;;;;;;;;;5026790;28;20073;-84
2023/06/19 13:29:47;;;;;;;5.50;4.90;;;;;;;;;;5033602;28;20096;-83
2023/06/19 13:32:15;;;;;;;5.32;4.38;;;;;;;;;;5029011;28;20048;-83
2023/06/19 13:34:43;;;;;;;6.30;4.32;;;;;;;;;;5033842;28;20052;-84
2023/06/19 13:37:10;;;;;;;5.78;4.85;;;;;;;;;;5023432;28;20045;-83
2023/06/19 13:39:37;;;;;;;5.72;4.90;;;;;;;;;;5025643;28;20058;-83
2023/06/19 13:42:05;;;;;;;6.30;4.63;;;;;;;;;;5024331;28;20056;-84
2023/06/19 13:44:32;;;;;;;7.22;5.55;;;;;;;;;;5014916;28;20049;-83
2023/06/19 13:47:00;;;;;;;5.75;5.00;;;;;;;;;;5029952;28;20115;-84
2023/06/19 13:49:35;;;;;;;5.97;4.90;;;;;;;;;;5035968;28;20058;-84
2023/06/19 13:52:02;;;;;;;6.93;4.70;;;;;;;;;;5020260;28;20050;-83
2023/06/19 13:54:29;;;;;;;6.57;4.85;;;;;;;;;;5010804;28;20050;-83
2023/06/19 13:56:56;;;;;;;6.15;4.75;;;;;;;;;;5002974;28;20072;-83
2023/06/19 13:59:23;;;;;;;5.53;5.00;;;;;;;;;;5024573;28;20108;-84
2023/06/19 14:01:50;;;;;;;5.80;5.10;;;;;;;;;;5024092;28;20042;-83
2023/06/19 14:04:17;;;;;;;6.95;5.38;;;;;;;;;;5021821;28;20041;-83
2023/06/19 14:06:45;;;;;;;5.97;5.28;;;;;;;;;;5023307;28;20110;-84
2023/06/19 14:09:13;;;;;;;6.95;5.55;;;;;;;;;;5033292;28;20046;-84
2023/06/19 14:11:39;;;;;;;6.47;4.97;;;;;;;;;;5033613;28;20046;-83
2023/06/19 14:14:06;;;;;;;5.28;4.78;;;;;;;;;;5024028;28;20105;-83
2023/06/19 14:16:32;;;;;;;5.93;5.10;;;;;;;;;;5020855;28;20077;-82
2023/06/19 14:18:59;;;;;;;6.47;4.93;;;;;;;;;;5021647;28;20076;-81
2023/06/19 14:21:26;;;;;;;13.18;5.63;;;;;;;;;;5028906;28;20050;-82
2023/06/19 14:23:55;;;;;;;8.05;5.22;;;;;;;;;;5026010;28;20529;-82
2023/06/19 14:26:22;;;;;;;9.57;5.47;;;;;;;;;;5026408;28;20531;-77
2023/06/19 14:28:48;;;;;;;6.95;5.07;;;;;;;;;;5022237;28;20497;-81
2023/06/19 14:31:15;;;;;;;7.13;5.32;;;;;;;;;;5018726;28;20136;-80
2023/06/19 14:33:42;;;;;;;6.38;5.22;;;;;;;;;;5037897;28;20048;-81